createdAt,value
2022-10-18T00:00:23.571Z,1.7
2022-10-18T00:01:23.989Z,1.8
2022-10-18T00:02:24.368Z,1.8
2022-10-18T00:03:25.021Z,1.7
2022-10-18T00:04:25.107Z,2.2
2022-10-18T00:05:25.658Z,2
2022-10-18T00:06:26.179Z,1.9
2022-10-18T00:07:26.338Z,2.3
2022-10-18T00:08:27.205Z,1.8
2022-10-18T00:09:27.379Z,1.8
2022-10-18T00:10:27.834Z,2.5
2022-10-18T00:11:28.149Z,1.8
2022-10-18T00:12:28.469Z,1.9
2022-10-18T00:13:28.881Z,1.9
2022-10-18T00:14:29.199Z,2.3
2022-10-18T00:15:29.716Z,2
2022-10-18T00:16:30.434Z,1.9
2022-10-18T00:17:30.797Z,2.7
2022-10-18T00:18:31.344Z,2.5
2022-10-18T00:19:31.246Z,2.4
2022-10-18T00:20:32.001Z,2.6
2022-10-18T00:21:32.453Z,1.8
2022-10-18T00:22:35.507Z,1.6
2022-10-18T00:23:35.107Z,2
2022-10-18T00:24:33.461Z,1.9
2022-10-18T00:25:33.772Z,1.9
2022-10-18T00:26:34.191Z,2
2022-10-18T00:27:35.529Z,2
2022-10-18T00:28:35.980Z,1.9
2022-10-18T00:29:35.439Z,2.1
2022-10-18T00:30:35.797Z,2.3
2022-10-18T00:31:37.804Z,2.6
2022-10-18T00:32:39.142Z,2.1
2022-10-18T00:33:37.108Z,1.9
2022-10-18T00:34:39.171Z,1.9
2022-10-18T00:35:37.826Z,2.1
2022-10-18T00:36:38.458Z,2.2
2022-10-18T00:37:38.667Z,2.2
2022-10-18T00:38:39.397Z,2
2022-10-18T00:39:39.874Z,1.8
2022-10-18T00:40:39.810Z,1.8
2022-10-18T00:41:40.336Z,2.3
2022-10-18T00:42:40.748Z,2.2
2022-10-18T00:45:45.278Z,2.2
2022-10-18T00:46:47.948Z,2.3
2022-10-18T00:49:55.238Z,2.1
2022-10-18T00:50:53.493Z,2.3
2022-10-18T00:53:59.507Z,1.9
2022-10-18T00:55:00.700Z,2
2022-10-18T00:56:00.168Z,1.8
2022-10-18T00:57:01.728Z,1.9
2022-10-18T00:58:02.044Z,2
2022-10-18T00:59:02.221Z,2.2
2022-10-18T01:00:02.463Z,2.2
2022-10-18T01:01:02.174Z,1.9
2022-10-18T01:02:02.971Z,1.7
2022-10-18T01:03:03.109Z,1.7
2022-10-18T01:04:03.689Z,1.9
2022-10-18T01:05:04.657Z,2.4
2022-10-18T01:06:04.655Z,2.1
2022-10-18T01:21:54.520Z,1.9
2022-10-18T01:32:19.675Z,2.8
2022-10-18T01:34:23.228Z,2
2022-10-18T01:37:33.110Z,2
2022-10-18T01:38:33.294Z,2.5
2022-10-18T01:40:36.935Z,2.7
2022-10-18T01:41:37.449Z,2.1
2022-10-18T01:42:35.504Z,2.1
2022-10-18T01:43:37.261Z,2
2022-10-18T01:44:38.792Z,2
2022-10-18T01:45:36.343Z,2.5
2022-10-18T01:46:39.939Z,2.4
2022-10-18T01:47:37.544Z,2.1
2022-10-18T01:48:37.767Z,2.2
2022-10-18T01:49:38.215Z,2.2
2022-10-18T01:50:38.837Z,2.1
2022-10-18T01:51:39.052Z,1.9
2022-10-18T01:53:43.668Z,2
2022-10-18T01:54:47.831Z,2.3
2022-10-18T02:11:25.971Z,1.7
2022-10-18T02:12:26.282Z,1.3
2022-10-18T02:14:27.934Z,1.3
2022-10-18T02:17:33.381Z,1.7
2022-10-18T02:18:41.478Z,1.8
2022-10-18T02:19:40.368Z,1.3
2022-10-18T02:20:39.243Z,1.5
2022-10-18T02:21:41.187Z,1.4
2022-10-18T02:22:40.490Z,1.8
2022-10-18T02:23:39.667Z,1.3
2022-10-18T02:24:44.182Z,1.5
2022-10-18T02:25:41.725Z,1.5
2022-10-18T02:26:42.446Z,1.5
2022-10-18T02:27:42.563Z,1.7
2022-10-18T02:28:44.628Z,1.6
2022-10-18T02:29:44.513Z,1.6
2022-10-18T02:37:04.959Z,1.8
2022-10-18T02:38:07.619Z,1.6
2022-10-18T02:40:10.712Z,2
2022-10-18T02:41:09.998Z,1.6
2022-10-18T02:42:11.130Z,1.7
2022-10-18T02:43:10.628Z,1.6
2022-10-18T02:44:11.048Z,1.6
2022-10-18T02:45:12.569Z,1.9
2022-10-18T02:46:12.076Z,2.2
2022-10-18T02:47:12.700Z,2.1
2022-10-18T02:48:12.593Z,1.5
2022-10-18T02:49:12.915Z,1.3
2022-10-18T02:50:14.248Z,1.3
2022-10-18T02:51:13.742Z,1.8
2022-10-18T02:52:14.264Z,2.6
2022-10-18T02:53:14.471Z,1.9
2022-10-18T02:54:14.883Z,2
2022-10-18T02:55:15.865Z,1.5
2022-10-18T02:56:16.448Z,1.4
2022-10-18T02:57:16.040Z,1.8
2022-10-18T02:58:16.769Z,2.8
2022-10-18T02:59:17.280Z,1.6
2022-10-18T03:00:17.791Z,2.2
2022-10-18T03:01:17.806Z,3.3
2022-10-18T03:02:18.317Z,2.4
2022-10-18T03:03:18.638Z,1.8
2022-10-18T03:04:19.432Z,1.8
2022-10-18T03:05:19.368Z,1.6
2022-10-18T03:06:19.891Z,1.6
2022-10-18T03:07:20.197Z,1.6
2022-10-18T03:08:20.509Z,1.8
2022-10-18T03:09:21.039Z,1.8
2022-10-18T03:10:21.447Z,1.8
2022-10-18T03:11:21.868Z,1.7
2022-10-18T03:12:22.278Z,1.5
2022-10-18T03:13:22.865Z,1.6
2022-10-18T03:14:23.207Z,1.4
2022-10-18T03:15:23.286Z,1.5
2022-10-18T03:16:24.045Z,1.5
2022-10-18T03:17:24.355Z,1.8
2022-10-18T03:18:24.543Z,1.4
2022-10-18T03:19:25.396Z,1.6
2022-10-18T03:20:25.506Z,1.4
2022-10-18T03:21:25.912Z,1.7
2022-10-18T03:22:26.467Z,1.4
2022-10-18T03:23:26.596Z,1.5
2022-10-18T03:24:27.058Z,1.6
2022-10-18T03:25:27.581Z,1.6
2022-10-18T03:26:27.792Z,1.6
2022-10-18T03:27:28.532Z,2
2022-10-18T03:28:28.873Z,2.4
2022-10-18T03:29:29.145Z,1.6
2022-10-18T03:30:29.879Z,1.8
2022-10-18T03:32:30.591Z,1.7
2022-10-18T03:33:31.837Z,1.7
2022-10-18T03:34:31.228Z,1.7
2022-10-18T03:35:31.647Z,1.7
2022-10-18T03:36:32.162Z,1.8
2022-10-18T03:37:32.475Z,1.6
2022-10-18T03:38:32.892Z,1.6
2022-10-18T03:39:33.178Z,2.1
2022-10-18T03:40:33.673Z,3.3
2022-10-18T03:41:33.941Z,2.8
2022-10-18T03:42:34.850Z,3.1
2022-10-18T03:43:34.975Z,2.1
2022-10-18T03:44:35.283Z,3
2022-10-18T03:45:36.111Z,2.7
2022-10-18T03:46:36.227Z,1.9
2022-10-18T03:47:36.442Z,2
2022-10-18T03:48:36.772Z,2.1
2022-10-18T03:49:37.378Z,2.1
2022-10-18T03:50:37.578Z,1.8
2022-10-18T03:51:38.199Z,1.8
2022-10-18T03:52:38.626Z,1.8
2022-10-18T03:53:38.929Z,1.7
2022-10-18T03:54:39.351Z,1.8
2022-10-18T03:55:39.877Z,1.8
2022-10-18T03:56:40.179Z,1.8
2022-10-18T03:57:40.390Z,1.9
2022-10-18T03:58:41.006Z,2
2022-10-18T03:59:41.530Z,2
2022-10-18T04:00:41.745Z,1.8
2022-10-18T04:01:42.504Z,2.1
2022-10-18T04:02:42.773Z,1.9
2022-10-18T04:03:43.000Z,2
2022-10-18T04:04:43.315Z,2.5
2022-10-18T04:05:44.543Z,2.1
2022-10-18T04:06:44.233Z,2
2022-10-18T04:07:44.858Z,2.3
2022-10-18T04:08:45.171Z,2
2022-10-18T04:09:45.486Z,1.9
2022-10-18T04:10:46.309Z,2
2022-10-18T04:11:46.213Z,2.1
2022-10-18T04:12:46.633Z,2.5
2022-10-18T04:13:47.255Z,3
2022-10-18T04:14:47.367Z,2.5
2022-10-18T04:15:47.979Z,2.6
2022-10-18T04:16:48.347Z,2.4
2022-10-18T04:17:48.829Z,1.7
2022-10-18T04:18:49.138Z,1.9
2022-10-18T04:19:49.747Z,2.4
2022-10-18T04:20:49.974Z,3
2022-10-18T04:21:50.284Z,4.1
2022-10-18T04:22:51.577Z,12
2022-10-18T04:23:51.318Z,4.4
2022-10-18T04:24:51.624Z,2.4
2022-10-18T04:25:52.045Z,5.9
2022-10-18T04:26:52.975Z,2.6
2022-10-18T04:27:52.879Z,2
2022-10-18T04:28:53.382Z,1.8
2022-10-18T04:29:53.822Z,2
2022-10-18T04:30:54.434Z,2.3
2022-10-18T04:31:54.545Z,1.9
2022-10-18T04:32:54.970Z,1.8
2022-10-18T04:33:55.369Z,1.9
2022-10-18T04:34:55.706Z,1.8
2022-10-18T04:35:56.111Z,2
2022-10-18T04:36:56.524Z,1.9
2022-10-18T04:37:57.038Z,2
2022-10-18T04:38:57.558Z,2
2022-10-18T04:39:58.204Z,2.1
2022-10-18T04:40:58.182Z,1.9
2022-10-18T04:41:58.614Z,1.9
2022-10-18T04:42:59.121Z,2
2022-10-18T04:43:59.532Z,2
2022-10-18T04:44:59.742Z,2.3
2022-10-18T04:46:00.158Z,2
2022-10-18T04:47:01.091Z,1.9
2022-10-18T04:48:01.197Z,2.1
2022-10-18T04:49:01.511Z,2.1
2022-10-18T04:50:01.819Z,2.2
2022-10-18T04:51:02.271Z,2.2
2022-10-18T04:52:02.760Z,2
2022-10-18T04:53:03.383Z,2.3
2022-10-18T04:54:03.672Z,2.2
2022-10-18T04:55:04.423Z,2.6
2022-10-18T04:56:04.631Z,2.2
2022-10-18T04:57:05.051Z,2.8
2022-10-18T04:58:05.051Z,2.3
2022-10-18T04:59:05.978Z,2.5
2022-10-18T05:00:07.018Z,2.4
2022-10-18T05:01:07.745Z,3
2022-10-18T05:02:06.827Z,2.9
2022-10-18T05:03:07.650Z,2.7
2022-10-18T05:04:08.111Z,3.5
2022-10-18T05:05:11.665Z,3
2022-10-18T05:06:11.555Z,3
2022-10-18T05:07:12.074Z,3
2022-10-18T05:08:13.108Z,3.7
2022-10-18T05:09:13.418Z,4.7
2022-10-18T05:10:13.021Z,3.8
2022-10-18T05:11:13.578Z,3.6
2022-10-18T05:12:14.052Z,3.8
2022-10-18T05:13:14.420Z,3.9
2022-10-18T05:14:14.885Z,3.7
2022-10-18T05:15:15.505Z,6.2
2022-10-18T05:16:15.519Z,19.4
2022-10-18T05:17:16.033Z,17.9
2022-10-18T05:18:16.293Z,34.7
2022-10-18T05:19:16.865Z,25.7
2022-10-18T05:20:17.590Z,25.1
2022-10-18T05:21:17.694Z,19
2022-10-18T05:22:18.125Z,41.4
2022-10-18T05:23:18.437Z,10
2022-10-18T05:24:20.265Z,10.9
2022-10-18T05:25:19.495Z,6.7
2022-10-18T05:26:19.875Z,6.1
2022-10-18T05:27:20.249Z,5.3
2022-10-18T05:28:38.578Z,4.7
2022-10-18T05:29:22.369Z,5.9
2022-10-18T05:30:22.368Z,5.5
2022-10-18T05:31:22.888Z,5.3
2022-10-18T05:32:23.093Z,4.8
2022-10-18T05:33:23.710Z,5.1
2022-10-18T05:34:24.233Z,5.3
2022-10-18T05:35:24.445Z,4.8
2022-10-18T05:36:24.862Z,5.9
2022-10-18T05:37:28.317Z,5.3
2022-10-18T05:38:26.246Z,6
2022-10-18T05:39:26.520Z,6
2022-10-18T05:40:26.935Z,5.4
2022-10-18T05:41:27.210Z,5.6
2022-10-18T05:42:27.983Z,6
2022-10-18T05:43:29.023Z,6.5
2022-10-18T05:44:28.566Z,6.3
2022-10-18T05:45:29.012Z,7.3
2022-10-18T05:46:29.437Z,6.6
2022-10-18T05:47:29.999Z,6.6
2022-10-18T05:48:30.274Z,6.4
2022-10-18T05:49:30.784Z,6.3
2022-10-18T05:50:34.460Z,6.2
2022-10-18T05:51:34.222Z,6.7
2022-10-18T05:52:35.068Z,6.2
2022-10-18T05:53:37.420Z,6.5
2022-10-18T05:54:35.424Z,5.5
2022-10-18T05:55:36.253Z,6.2
2022-10-18T05:56:36.401Z,6.1
2022-10-18T05:57:36.774Z,6.3
2022-10-18T05:58:37.296Z,6.3
2022-10-18T05:59:37.709Z,6.2
2022-10-18T06:00:38.137Z,5.6
2022-10-18T06:02:40.351Z,6.1
2022-10-18T06:03:40.606Z,5.8
2022-10-18T06:04:41.123Z,6.3
2022-10-18T06:05:41.555Z,5.7
2022-10-18T06:06:41.859Z,6.3
2022-10-18T06:07:42.175Z,5.8
2022-10-18T06:08:44.226Z,6.2
2022-10-18T06:09:43.519Z,6
2022-10-18T06:10:43.826Z,6.4
2022-10-18T06:11:44.051Z,6.2
2022-10-18T06:12:44.458Z,5.8
2022-10-18T06:13:47.195Z,5.9
2022-10-18T06:14:45.359Z,5.9
2022-10-18T06:15:45.810Z,5.4
2022-10-18T06:16:46.214Z,5.9
2022-10-18T06:17:46.841Z,5.5
2022-10-18T06:19:49.497Z,5.9
2022-10-18T06:20:50.238Z,6
2022-10-18T06:21:50.549Z,5.7
2022-10-18T06:22:52.906Z,5.3
2022-10-18T06:23:53.533Z,5.5
2022-10-18T06:24:56.491Z,5.1
2022-10-18T06:25:58.567Z,5.3
2022-10-18T06:26:56.258Z,5.8
2022-10-18T06:27:56.538Z,5.3
2022-10-18T06:28:56.959Z,5.8
2022-10-18T06:29:57.465Z,5.8
2022-10-18T06:30:58.304Z,6.8
2022-10-18T06:31:58.149Z,4.9
2022-10-18T06:33:01.476Z,4.9
2022-10-18T06:33:59.037Z,5.1
2022-10-18T06:34:59.559Z,4.9
2022-10-18T06:36:02.221Z,5.2
2022-10-18T06:37:00.384Z,4.7
2022-10-18T06:38:00.700Z,4.8
2022-10-18T06:39:01.092Z,4.4
2022-10-18T06:40:01.838Z,4.7
2022-10-18T06:41:04.015Z,5.1
2022-10-18T06:42:02.772Z,4.6
2022-10-18T06:43:20.018Z,5
2022-10-18T06:44:03.510Z,4.6
2022-10-18T06:45:04.340Z,4.3
2022-10-18T06:46:05.891Z,4.5
2022-10-18T06:47:04.645Z,4.6
2022-10-18T06:48:05.927Z,4.7
2022-10-18T06:49:05.480Z,4.8
2022-10-18T06:50:06.988Z,4.4
2022-10-18T06:51:07.847Z,4.3
2022-10-18T06:52:07.038Z,4
2022-10-18T06:53:07.246Z,4.1
2022-10-18T06:54:17.334Z,4.5
2022-10-18T06:55:10.736Z,5.6
2022-10-18T06:56:13.217Z,3.6
2022-10-18T06:57:11.985Z,3.4
2022-10-18T06:58:11.994Z,3.5
2022-10-18T06:59:12.710Z,3.3
2022-10-18T07:00:13.944Z,3.6
2022-10-18T07:01:16.259Z,4.1
2022-10-18T07:02:18.154Z,3.7
2022-10-18T07:03:15.615Z,3.7
2022-10-18T07:04:16.024Z,3.3
2022-10-18T07:05:16.638Z,3.3
2022-10-18T07:06:18.904Z,3
2022-10-18T07:07:17.475Z,3
2022-10-18T07:08:18.912Z,2.7
2022-10-18T07:09:18.310Z,3.3
2022-10-18T07:10:18.934Z,2.7
2022-10-18T07:11:22.395Z,2.5
2022-10-18T07:12:19.857Z,2.8
2022-10-18T07:13:32.027Z,3
2022-10-18T07:14:29.015Z,2.7
2022-10-18T07:15:26.818Z,2.7
2022-10-18T07:16:27.261Z,2.6
2022-10-18T07:17:28.103Z,2.7
2022-10-18T07:18:28.199Z,2.6
2022-10-18T07:19:28.383Z,2.5
2022-10-18T07:20:28.924Z,2.7
2022-10-18T07:21:29.443Z,2.7
2022-10-18T07:22:30.544Z,2.9
2022-10-18T07:23:32.945Z,3.1
2022-10-18T07:24:30.660Z,3.3
2022-10-18T07:25:31.517Z,2.6
2022-10-18T07:26:33.906Z,2.8
2022-10-18T07:27:35.692Z,3.2
2022-10-18T07:28:33.237Z,2.8
2022-10-18T07:29:35.031Z,2.9
2022-10-18T07:30:34.625Z,3.1
2022-10-18T07:31:35.294Z,3.2
2022-10-18T07:32:34.813Z,2.4
2022-10-18T07:33:36.495Z,2.6
2022-10-18T07:34:35.983Z,2.8
2022-10-18T07:35:36.197Z,2.5
2022-10-18T07:36:36.615Z,2.6
2022-10-18T07:37:37.335Z,2.6
2022-10-18T07:38:37.746Z,2.3
2022-10-18T07:39:37.974Z,3
2022-10-18T07:40:38.385Z,2.4
2022-10-18T07:41:38.690Z,2.6
2022-10-18T07:42:39.315Z,2.5
2022-10-18T07:43:44.746Z,2.4
2022-10-18T07:44:42.276Z,2.5
2022-10-18T07:46:44.670Z,2.3
2022-10-18T07:47:45.181Z,2.3
2022-10-18T07:48:45.729Z,2.4
2022-10-18T07:49:46.347Z,2.3
2022-10-18T07:50:46.539Z,2.4
2022-10-18T07:51:46.924Z,2.2
2022-10-18T07:52:47.367Z,2.4
2022-10-18T07:53:48.299Z,2.2
2022-10-18T07:55:48.614Z,2.7
2022-10-18T07:56:49.446Z,27.2
2022-10-18T07:57:49.774Z,6.2
2022-10-18T07:58:52.946Z,4.6
2022-10-18T07:59:50.588Z,3.1
2022-10-18T08:00:50.892Z,2.8
2022-10-18T08:01:51.595Z,2.5
2022-10-18T08:02:56.748Z,2.4
2022-10-18T08:03:54.308Z,2.3
2022-10-18T08:04:54.813Z,2.4
2022-10-18T08:05:55.444Z,2.3
2022-10-18T08:06:55.541Z,2.3
2022-10-18T08:07:56.484Z,2.2
2022-10-18T08:08:56.634Z,2.2
2022-10-18T08:09:57.004Z,2.6
2022-10-18T08:11:03.573Z,2.5
2022-10-18T08:12:00.974Z,2.3
2022-10-18T08:13:01.545Z,2.3
2022-10-18T08:14:01.845Z,1.9
2022-10-18T08:15:02.504Z,2.1
2022-10-18T08:16:05.972Z,2
2022-10-18T08:17:03.494Z,2.3
2022-10-18T08:18:04.022Z,1.8
2022-10-18T08:19:04.334Z,2.1
2022-10-18T08:20:19.042Z,1.8
2022-10-18T08:21:11.105Z,1.7
2022-10-18T08:22:08.635Z,2
2022-10-18T08:23:09.264Z,1.6
2022-10-18T08:24:09.652Z,1.6
2022-10-18T08:25:10.420Z,2.1
2022-10-18T08:26:13.206Z,1.7
2022-10-18T08:27:10.853Z,1.8
2022-10-18T08:28:11.479Z,1.9
2022-10-18T08:29:22.456Z,1.8
2022-10-18T08:30:16.902Z,1.8
2022-10-18T08:31:18.860Z,1.7
2022-10-18T08:32:17.757Z,1.5
2022-10-18T08:33:17.835Z,1.6
2022-10-18T08:34:19.812Z,1.5
2022-10-18T08:35:18.875Z,1.8
2022-10-18T08:36:19.054Z,1.8
2022-10-18T08:37:19.505Z,1.8
2022-10-18T08:38:20.125Z,1.7
2022-10-18T08:39:20.539Z,1.6
2022-10-18T08:40:20.948Z,1.5
2022-10-18T08:44:32.565Z,1.3
2022-10-18T08:45:42.359Z,1.3
2022-10-18T08:46:38.926Z,1.4
2022-10-18T08:47:42.785Z,1.4
2022-10-18T08:48:45.897Z,1.3
2022-10-18T08:50:49.694Z,1.4
2022-10-18T08:51:51.115Z,1.3
2022-10-18T08:57:04.582Z,1.5
2022-10-18T08:58:03.013Z,1.4
2022-10-18T08:59:03.975Z,1.1
2022-10-18T09:00:16.595Z,1.5
2022-10-18T09:26:21.152Z,18.7
2022-10-18T09:27:19.011Z,3.5
2022-10-18T09:36:36.059Z,0.9
2022-10-18T09:37:35.058Z,1.5
2022-10-18T09:39:40.079Z,1.1
2022-10-18T09:41:55.257Z,0.9
2022-10-18T09:44:54.354Z,1.1
2022-10-18T09:45:54.466Z,1.1
2022-10-18T09:58:20.558Z,1.2
2022-10-18T10:02:26.818Z,1.4
2022-10-18T10:03:27.240Z,1.4
2022-10-18T10:04:28.062Z,1.5
2022-10-18T10:05:28.270Z,1.9
2022-10-18T10:06:31.364Z,1.6
2022-10-18T10:08:34.400Z,1.8
2022-10-18T10:10:34.036Z,1.6
2022-10-18T10:12:39.791Z,1.2
2022-10-18T10:13:38.047Z,1.5
2022-10-18T10:20:58.268Z,1.8
2022-10-18T10:23:07.651Z,1.5
2022-10-18T10:24:00.218Z,1.4
2022-10-18T10:25:00.954Z,1.5
2022-10-18T10:27:06.204Z,1.1
2022-10-18T10:28:07.405Z,1.2
2022-10-18T10:32:14.254Z,1.7
2022-10-18T10:34:29.362Z,1.4
2022-10-18T10:36:21.317Z,1
2022-10-18T10:39:24.712Z,2.8
2022-10-18T10:40:28.379Z,4.7
2022-10-18T10:41:27.311Z,2.5
2022-10-18T10:42:26.683Z,1.7
2022-10-18T10:44:34.067Z,1.3
2022-10-18T10:46:36.357Z,4.7
2022-10-18T10:47:37.057Z,1.7
2022-10-18T10:49:46.385Z,1.3
2022-10-18T10:51:41.177Z,1.5
2022-10-18T10:52:42.079Z,1.4
2022-10-18T10:54:50.410Z,1.4
2022-10-18T10:55:45.085Z,1.3
2022-10-18T10:57:52.167Z,1.4
2022-10-18T10:58:52.347Z,2.2
2022-10-18T10:59:57.105Z,1.7
2022-10-18T11:00:56.692Z,1.8
2022-10-18T11:08:23.071Z,1.9
2022-10-18T11:10:26.345Z,1.2
2022-10-18T11:14:36.783Z,1
2022-10-18T11:18:49.146Z,1
2022-10-18T11:21:53.137Z,2
2022-10-18T11:23:51.435Z,0.9
2022-10-18T11:24:51.729Z,1
2022-10-18T11:27:03.829Z,1.1
2022-10-18T12:05:58.649Z,0.8
2022-10-18T12:06:57.326Z,0.9
2022-10-18T12:08:07.386Z,0.8
2022-10-18T12:10:04.432Z,0.7
2022-10-18T12:11:09.956Z,0.7
2022-10-18T12:13:23.249Z,0.9
2022-10-18T12:15:23.186Z,1
2022-10-18T12:16:45.595Z,0.6
2022-10-18T12:18:28.025Z,0.9
2022-10-18T12:19:30.070Z,0.8
2022-10-18T12:21:31.417Z,2.6
2022-10-18T12:22:36.549Z,0.7
2022-10-18T12:24:37.988Z,0.8
2022-10-18T12:25:42.517Z,0.6
2022-10-18T12:26:40.226Z,0.8
2022-10-18T12:27:50.179Z,0.7
2022-10-18T12:34:02.665Z,0.6
2022-10-18T12:43:23.855Z,0.7
2022-10-18T12:44:23.785Z,0.5
2022-10-18T12:46:21.450Z,0.6
2022-10-18T12:49:41.479Z,0.7
2022-10-18T12:50:35.039Z,0.7
2022-10-18T12:51:32.651Z,0.6
2022-10-18T12:52:33.264Z,0.5
2022-10-18T12:53:34.574Z,0.6
2022-10-18T12:54:37.484Z,0.5
2022-10-18T12:55:40.515Z,0.7
2022-10-18T12:56:43.731Z,0.5
2022-10-18T12:58:44.979Z,0.5
2022-10-18T12:59:45.387Z,0.5
2022-10-18T13:00:56.067Z,0.6
2022-10-18T13:03:55.356Z,0.5
2022-10-18T13:04:52.961Z,0.6
2022-10-18T13:09:18.473Z,0.7
2022-10-18T13:39:23.021Z,0.5
2022-10-18T13:40:25.801Z,0.6
2022-10-18T13:41:32.700Z,0.7
2022-10-18T13:42:33.085Z,0.4
2022-10-18T13:44:36.672Z,0.5
2022-10-18T13:47:38.333Z,0.6
2022-10-18T13:50:47.769Z,0.4
2022-10-18T13:51:59.141Z,0.8
2022-10-18T14:07:26.992Z,0.6
2022-10-18T14:09:44.579Z,0.5
2022-10-18T14:11:37.230Z,0.5
2022-10-18T14:12:44.330Z,0.6
2022-10-18T14:13:48.536Z,0.5
2022-10-18T14:15:48.753Z,0.8
2022-10-18T14:17:58.889Z,0.7
2022-10-18T14:18:55.018Z,0.6
2022-10-18T14:28:21.710Z,0.4
2022-10-18T14:29:20.191Z,0.6
2022-10-18T14:30:20.597Z,0.4
2022-10-18T14:31:20.293Z,0.4
2022-10-18T14:32:30.203Z,0.3
2022-10-18T14:33:27.673Z,0.3
2022-10-18T14:34:25.803Z,0.2
2022-10-18T14:35:33.217Z,0.2
2022-10-18T14:36:29.466Z,0.4
2022-10-18T14:37:30.629Z,0.6
2022-10-18T14:38:29.241Z,0.6
2022-10-18T14:39:28.848Z,0.3
2022-10-18T14:40:40.416Z,0.2
2022-10-18T14:42:34.974Z,0.2
2022-10-18T14:43:35.423Z,0.3
2022-10-18T14:44:36.041Z,0.3
2022-10-18T14:45:36.354Z,0.1
2022-10-18T14:46:48.243Z,0.3
2022-10-18T14:47:40.634Z,0.2
2022-10-18T14:48:41.085Z,0.8
2022-10-18T14:49:45.706Z,0.3
2022-10-18T14:50:46.113Z,0.2
2022-10-18T14:51:46.434Z,0.4
2022-10-18T14:52:44.287Z,0.4
2022-10-18T14:53:44.609Z,0.3
2022-10-18T14:54:46.042Z,0.3
2022-10-18T14:55:54.857Z,0.4
2022-10-18T14:56:47.975Z,0.3
2022-10-18T14:57:48.074Z,0.4
2022-10-18T14:58:48.425Z,0.5
2022-10-18T14:59:56.465Z,0.2
2022-10-18T15:00:49.360Z,0.3
2022-10-18T15:01:58.890Z,0.3
2022-10-18T15:02:51.631Z,0.2
2022-10-18T15:03:56.647Z,0.2
2022-10-18T15:06:00.140Z,0.3
2022-10-18T15:06:59.128Z,0.3
2022-10-18T15:07:59.332Z,0.2
2022-10-18T15:09:02.005Z,1.6
2022-10-18T15:10:01.871Z,1
2022-10-18T15:11:00.584Z,0.5
2022-10-18T15:12:03.458Z,0.2
2022-10-18T15:13:09.864Z,0.3
2022-10-18T15:14:07.771Z,0.3
2022-10-18T15:15:07.164Z,0.2
2022-10-18T15:16:06.251Z,0.2
2022-10-18T15:17:16.807Z,0.2
2022-10-18T15:18:22.307Z,0.5
2022-10-18T15:22:32.358Z,0.2
2022-10-18T15:23:25.634Z,0.2
2022-10-18T15:25:31.984Z,0.3
2022-10-18T15:26:30.589Z,0.2
2022-10-18T15:27:33.280Z,0.2
2022-10-18T15:28:36.588Z,0.4
2022-10-18T15:29:35.493Z,0.3
2022-10-18T15:30:40.142Z,0.3
2022-10-18T15:31:41.772Z,0.2
2022-10-18T15:32:49.571Z,0.3
2022-10-18T15:33:42.178Z,0.3
2022-10-18T15:34:42.735Z,0.2
2022-10-18T15:35:42.906Z,0.4
2022-10-18T15:37:46.628Z,1.7
2022-10-18T15:38:47.547Z,0.2
2022-10-18T15:39:47.775Z,0.3
2022-10-18T15:40:48.288Z,0.3
2022-10-18T15:42:02.125Z,0.3
2022-10-18T15:43:01.408Z,0.4
2022-10-18T15:44:56.223Z,0.3
2022-10-18T15:46:05.240Z,0.3
2022-10-18T15:50:05.655Z,0.2
2022-10-18T15:51:07.983Z,0.3
2022-10-18T15:57:18.645Z,0.3
2022-10-18T15:58:27.316Z,0.2
2022-10-18T15:59:29.677Z,0.2
2022-10-18T16:00:22.414Z,0.2
2022-10-18T16:01:36.945Z,0.2
2022-10-18T16:02:24.686Z,0.1
2022-10-18T16:03:25.468Z,0.4
2022-10-18T16:04:28.076Z,0.3
2022-10-18T16:05:25.718Z,0.3
2022-10-18T16:06:26.141Z,0.3
2022-10-18T16:07:26.560Z,0.3
2022-10-18T16:08:29.017Z,0.2
2022-10-18T16:09:29.337Z,0.4
2022-10-18T16:10:27.806Z,0.5
2022-10-18T16:11:28.328Z,0.3
2022-10-18T16:12:28.604Z,0.4
2022-10-18T16:13:29.149Z,1.1
2022-10-18T16:14:29.668Z,0.2
2022-10-18T16:15:30.085Z,0.3
2022-10-18T16:16:30.611Z,0.4
2022-10-18T16:17:32.070Z,0.3
2022-10-18T16:18:31.332Z,0.2
2022-10-18T16:19:32.160Z,0.3
2022-10-18T16:20:32.070Z,0.3
2022-10-18T16:21:37.468Z,0.2
2022-10-18T16:22:37.098Z,0.3
2022-10-18T16:23:35.569Z,0.3
2022-10-18T16:24:35.741Z,0.4
2022-10-18T16:25:36.396Z,0.3
2022-10-18T16:26:37.530Z,0.3
2022-10-18T16:27:37.103Z,0.2
2022-10-18T16:28:37.563Z,0.2
2022-10-18T16:29:37.763Z,0.4
2022-10-18T16:30:39.500Z,0.4
2022-10-18T16:31:38.646Z,0.3
2022-10-18T16:32:40.336Z,0.2
2022-10-18T16:33:39.528Z,0.8
2022-10-18T16:34:40.021Z,0.3
2022-10-18T16:35:40.254Z,0.2
2022-10-18T16:36:41.349Z,0.2
2022-10-18T16:37:41.197Z,19.7
2022-10-18T16:38:41.713Z,4.2
2022-10-18T16:39:42.026Z,1.9
2022-10-18T16:40:42.448Z,0.4
2022-10-18T16:41:42.961Z,0.2
2022-10-18T16:42:43.373Z,0.2
2022-10-18T16:43:45.229Z,0.2
2022-10-18T16:44:43.998Z,0.3
2022-10-18T16:45:44.622Z,0.3
2022-10-18T16:46:46.291Z,0.3
2022-10-18T16:47:45.244Z,0.5
2022-10-18T16:48:46.485Z,0.3
2022-10-18T16:49:46.179Z,0.3
2022-10-18T16:50:47.519Z,0.2
2022-10-18T16:51:47.321Z,0.3
2022-10-18T16:52:47.330Z,0.4
2022-10-18T16:53:48.266Z,0.2
2022-10-18T16:54:48.331Z,0.8
2022-10-18T16:55:52.744Z,0.3
2022-10-18T16:56:50.577Z,0.3
2022-10-18T16:57:51.662Z,0.3
2022-10-18T16:58:51.671Z,0.3
2022-10-18T16:59:51.687Z,0.4
2022-10-18T17:00:52.985Z,0.3
2022-10-18T17:01:52.489Z,0.3
2022-10-18T17:02:53.132Z,0.4
2022-10-18T17:03:53.543Z,0.4
2022-10-18T17:04:53.551Z,0.3
2022-10-18T17:05:54.280Z,0.6
2022-10-18T17:06:57.568Z,0.4
2022-10-18T17:07:55.215Z,0.4
2022-10-18T17:08:56.865Z,0.3
2022-10-18T17:09:56.109Z,0.2
2022-10-18T17:10:58.405Z,0.5
2022-10-18T17:11:56.878Z,0.4
2022-10-18T17:12:57.185Z,0.3
2022-10-18T17:13:57.508Z,0.2
2022-10-18T17:14:58.022Z,0.3
2022-10-18T17:15:59.975Z,0.4
2022-10-18T17:16:58.854Z,0.4
2022-10-18T17:17:59.172Z,0.4
2022-10-18T17:19:03.030Z,0.4
2022-10-18T17:20:00.921Z,0.3
2022-10-18T17:21:01.544Z,0.4
2022-10-18T17:22:02.808Z,0.3
2022-10-18T17:23:02.270Z,0.3
2022-10-18T17:24:02.869Z,0.3
2022-10-18T17:25:03.576Z,0.3
2022-10-18T17:26:21.983Z,1.1
2022-10-18T17:27:06.083Z,0.7
2022-10-18T17:28:07.221Z,0.5
2022-10-18T17:29:07.899Z,0.4
2022-10-18T17:30:08.466Z,0.3
2022-10-18T17:31:07.852Z,0.2
2022-10-18T17:32:08.268Z,0.4
2022-10-18T17:33:08.855Z,1.5
2022-10-18T17:34:09.611Z,2.2
2022-10-18T17:35:10.033Z,2.3
2022-10-18T17:36:09.841Z,5.2
2022-10-18T17:37:10.252Z,3.9
2022-10-18T17:38:10.666Z,2.1
2022-10-18T17:39:11.705Z,1.8
2022-10-18T17:40:11.905Z,2.4
2022-10-18T17:41:12.224Z,2.8
2022-10-18T17:42:12.329Z,1.6
2022-10-18T17:43:12.756Z,1.3
2022-10-18T17:44:13.168Z,1.2
2022-10-18T17:45:13.645Z,0.7
2022-10-18T17:46:14.200Z,0.4
2022-10-18T17:47:14.617Z,0.5
2022-10-18T17:48:14.896Z,0.3
2022-10-18T17:49:15.344Z,0.4
2022-10-18T17:50:16.580Z,0.8
2022-10-18T17:51:17.377Z,0.5
2022-10-18T17:52:16.490Z,0.4
2022-10-18T17:53:17.185Z,0.3
2022-10-18T17:54:18.000Z,0.4
2022-10-18T17:55:18.042Z,0.3
2022-10-18T17:56:18.156Z,0.2
2022-10-18T17:57:18.867Z,0.3
2022-10-18T17:58:19.096Z,0.4
2022-10-18T17:59:19.515Z,0.4
2022-10-18T18:00:20.128Z,0.3
2022-10-18T18:01:22.646Z,0.3
2022-10-18T18:02:20.860Z,0.4
2022-10-18T18:03:21.528Z,0.4
2022-10-18T18:04:21.747Z,0.3
2022-10-18T18:05:22.010Z,0.5
2022-10-18T18:07:25.611Z,0.3
2022-10-18T18:08:25.717Z,0.3
2022-10-18T18:09:26.435Z,0.4
2022-10-18T18:10:26.746Z,0.5
2022-10-18T18:11:27.377Z,0.5
2022-10-18T18:12:27.385Z,0.8
2022-10-18T18:13:27.847Z,0.5
2022-10-18T18:14:28.381Z,0.5
2022-10-18T18:15:28.725Z,0.4
2022-10-18T18:16:30.250Z,0.4
2022-10-18T18:17:34.569Z,0.6
2022-10-18T18:18:32.221Z,0.4
2022-10-18T18:19:32.741Z,0.3
2022-10-18T18:20:32.965Z,0.4
2022-10-18T18:21:34.605Z,0.3
2022-10-18T18:22:36.005Z,0.3
2022-10-18T18:23:35.333Z,0.5
2022-10-18T18:24:35.849Z,0.5
2022-10-18T18:25:36.166Z,0.5
2022-10-18T18:26:39.650Z,0.4
2022-10-18T18:27:37.105Z,0.4
2022-10-18T18:28:37.840Z,0.3
2022-10-18T18:29:37.939Z,0.3
2022-10-18T18:30:40.196Z,0.4
2022-10-18T18:31:41.252Z,0.4
2022-10-18T18:32:40.098Z,0.8
2022-10-18T18:33:40.316Z,6.5
2022-10-18T18:34:40.631Z,29.5
2022-10-18T18:35:41.118Z,3.6
2022-10-18T18:36:41.877Z,1
2022-10-18T18:37:42.081Z,0.6
2022-10-18T18:38:42.392Z,1.7
2022-10-18T18:39:43.229Z,1
2022-10-18T18:40:43.245Z,0.5
2022-10-18T18:41:43.640Z,0.5
2022-10-18T18:42:43.963Z,0.5
2022-10-18T18:43:49.799Z,0.4
2022-10-18T18:44:47.084Z,0.3
2022-10-18T18:45:51.351Z,0.6
2022-10-18T18:46:49.315Z,0.4
2022-10-18T18:47:49.211Z,0.4
2022-10-18T18:48:49.739Z,0.4
2022-10-18T18:49:51.165Z,0.4
2022-10-18T18:50:50.360Z,0.4
2022-10-18T18:51:50.775Z,0.7
2022-10-18T18:52:51.393Z,0.5
2022-10-18T18:53:52.131Z,0.7
2022-10-18T18:54:52.130Z,0.5
2022-10-18T18:55:52.443Z,0.5
2022-10-18T18:56:52.723Z,0.5
2022-10-18T18:57:53.325Z,0.4
2022-10-18T18:58:54.072Z,0.9
2022-10-18T18:59:53.956Z,0.6
2022-10-18T19:00:54.481Z,0.6
2022-10-18T19:01:55.038Z,0.8
2022-10-18T19:02:55.558Z,0.8
2022-10-18T19:03:56.894Z,0.6
2022-10-18T19:04:56.187Z,0.4
2022-10-18T19:06:59.989Z,0.8
2022-10-18T19:08:01.843Z,0.5
2022-10-18T19:09:01.742Z,0.4
2022-10-18T19:10:01.336Z,0.5
2022-10-18T19:11:01.861Z,0.5
2022-10-18T19:12:02.170Z,0.4
2022-10-18T19:13:02.892Z,0.5
2022-10-18T19:14:03.613Z,0.4
2022-10-18T19:15:03.801Z,0.4
2022-10-18T19:17:07.732Z,0.5
2022-10-18T19:18:07.949Z,0.4